Time;durP1;ratioP1;P1;durP2;ratioP2;P2;SDS_P1;SDS_P2;PMS_P1;PMS_P2;Temp;Humidity;BMP_temperature;BMP_pressure;BME280_temperature;BME280_humidity;BME280_pressure;Samples;Min_cycle;Max_cycle;Signal;HPM_P1;HPM_P2
2023/01/20 00:00:38;;;;;;;52.58;24.33;;;;;;;;;;5063691;28;20029;-68
2023/01/20 00:03:04;;;;;;;40.67;18.75;;;;;;;;;;5063185;28;20070;-68
2023/01/20 00:05:30;;;;;;;42.05;19.73;;;;;;;;;;5069787;28;20021;-68
2023/01/20 00:07:56;;;;;;;50.10;22.30;;;;;;;;;;5081069;28;20131;-67
2023/01/20 00:10:22;;;;;;;48.45;20.63;;;;;;;;;;5066408;28;20017;-67
2023/01/20 00:12:48;;;;;;;43.22;19.98;;;;;;;;;;5051425;28;20405;-67
2023/01/20 00:15:15;;;;;;;37.20;19.52;;;;;;;;;;5063708;28;20029;-67
2023/01/20 00:17:41;;;;;;;31.50;19.08;;;;;;;;;;5057737;28;20040;-67
2023/01/20 00:20:07;;;;;;;46.58;21.92;;;;;;;;;;5054974;28;20044;-67
2023/01/20 00:22:36;;;;;;;40.50;19.20;;;;;;;;;;5064783;28;20020;-67
2023/01/20 00:25:02;;;;;;;41.22;18.60;;;;;;;;;;5059510;28;20026;-67
2023/01/20 00:27:28;;;;;;;40.65;17.45;;;;;;;;;;5065490;28;20032;-67
2023/01/20 00:29:54;;;;;;;35.65;17.70;;;;;;;;;;5058262;28;20374;-67
2023/01/20 00:32:21;;;;;;;32.05;17.92;;;;;;;;;;5069446;28;20438;-67
2023/01/20 00:34:47;;;;;;;33.08;17.17;;;;;;;;;;5068093;28;20118;-67
2023/01/20 00:37:13;;;;;;;40.45;18.73;;;;;;;;;;5082843;28;20031;-67
2023/01/20 00:39:39;;;;;;;31.50;16.63;;;;;;;;;;5059942;28;20035;-67
2023/01/20 00:42:05;;;;;;;27.98;16.23;;;;;;;;;;5076293;28;20031;-67
2023/01/20 00:44:31;;;;;;;32.70;16.27;;;;;;;;;;5079428;28;20479;-67
2023/01/20 00:46:57;;;;;;;28.83;15.05;;;;;;;;;;5064581;28;20082;-67
2023/01/20 00:49:23;;;;;;;33.47;15.82;;;;;;;;;;5062152;28;20446;-67
2023/01/20 00:51:50;;;;;;;29.05;14.80;;;;;;;;;;5071303;28;20035;-67
2023/01/20 00:54:16;;;;;;;33.80;14.88;;;;;;;;;;5058799;28;20048;-67
2023/01/20 00:56:42;;;;;;;27.52;14.80;;;;;;;;;;5069362;28;20060;-67
2023/01/20 00:59:09;;;;;;;25.92;13.93;;;;;;;;;;5074242;28;20064;-67
2023/01/20 01:01:35;;;;;;;30.23;14.85;;;;;;;;;;5082649;28;20080;-67
2023/01/20 01:04:01;;;;;;;27.77;13.77;;;;;;;;;;5074594;28;20503;-67
2023/01/20 01:06:27;;;;;;;32.53;15.60;;;;;;;;;;5068008;28;20021;-67
2023/01/20 01:08:53;;;;;;;25.48;14.63;;;;;;;;;;5070160;28;20034;-68
2023/01/20 01:11:19;;;;;;;28.02;14.20;;;;;;;;;;5082107;28;20027;-67
2023/01/20 01:13:45;;;;;;;31.73;15.13;;;;;;;;;;5058796;28;20029;-67
2023/01/20 01:16:12;;;;;;;36.55;15.40;;;;;;;;;;5070870;28;20094;-67
2023/01/20 01:18:39;;;;;;;28.23;14.68;;;;;;;;;;5060663;28;20446;-67
2023/01/20 01:21:06;;;;;;;28.67;13.85;;;;;;;;;;5064496;28;20037;-67
2023/01/20 01:23:32;;;;;;;28.58;15.98;;;;;;;;;;5067851;28;20038;-67
2023/01/20 01:25:58;;;;;;;31.15;13.95;;;;;;;;;;5078149;28;20028;-67
2023/01/20 01:28:24;;;;;;;26.50;13.38;;;;;;;;;;5069911;28;20078;-67
2023/01/20 01:30:50;;;;;;;23.27;12.73;;;;;;;;;;5082504;28;20070;-67
2023/01/20 01:33:16;;;;;;;24.05;12.43;;;;;;;;;;5085339;28;20541;-67
2023/01/20 01:35:42;;;;;;;22.90;12.40;;;;;;;;;;5072394;28;20502;-67
2023/01/20 01:38:08;;;;;;;25.60;13.80;;;;;;;;;;5070433;28;20501;-67
2023/01/20 01:40:35;;;;;;;30.27;12.63;;;;;;;;;;5062163;28;20430;-67
2023/01/20 01:43:01;;;;;;;24.92;13.50;;;;;;;;;;5084317;28;20024;-67
2023/01/20 01:45:28;;;;;;;28.70;13.80;;;;;;;;;;5061730;28;20441;-67
2023/01/20 01:47:57;;;;;;;21.90;12.52;;;;;;;;;;5070101;28;20055;-67
2023/01/20 01:50:25;;;;;;;27.02;13.30;;;;;;;;;;5057527;28;20112;-67
2023/01/20 01:52:52;;;;;;;26.73;12.45;;;;;;;;;;5066652;28;20020;-67
2023/01/20 01:55:20;;;;;;;26.02;11.98;;;;;;;;;;5065301;28;20031;-67
2023/01/20 01:57:47;;;;;;;22.83;11.57;;;;;;;;;;5067945;28;20399;-67
2023/01/20 02:00:13;;;;;;;20.88;12.07;;;;;;;;;;5073031;28;20516;-67
2023/01/20 02:02:42;;;;;;;27.08;12.23;;;;;;;;;;5060350;28;20063;-67
2023/01/20 02:05:08;;;;;;;23.75;12.00;;;;;;;;;;5069993;28;20028;-67
2023/01/20 02:07:35;;;;;;;22.48;13.45;;;;;;;;;;5058299;28;20119;-67
2023/01/20 02:10:01;;;;;;;23.15;12.48;;;;;;;;;;5079469;28;20025;-67
2023/01/20 02:12:27;;;;;;;19.58;12.18;;;;;;;;;;5093408;28;20066;-67
2023/01/20 02:14:55;;;;;;;19.48;10.88;;;;;;;;;;5077785;28;20020;-67
2023/01/20 02:17:29;;;;;;;26.38;11.73;;;;;;;;;;5064925;28;20448;-67
2023/01/20 02:20:22;;;;;;;23.00;11.25;;;;;;;;;;5066315;28;20040;-67
2023/01/20 02:23:07;;;;;;;18.13;10.10;;;;;;;;;;5066304;28;20044;-67
2023/01/20 02:25:42;;;;;;;22.95;10.40;;;;;;;;;;5069086;28;20031;-67
2023/01/20 02:28:23;;;;;;;20.17;12.30;;;;;;;;;;5071577;28;20482;-67
2023/01/20 02:30:59;;;;;;;19.35;10.38;;;;;;;;;;5058844;28;20090;-67
2023/01/20 02:33:32;;;;;;;19.88;10.02;;;;;;;;;;5069386;28;20028;-67
2023/01/20 02:36:02;;;;;;;18.95;11.07;;;;;;;;;;5060344;28;20040;-67
2023/01/20 02:38:31;;;;;;;19.08;11.38;;;;;;;;;;5077570;28;20038;-67
2023/01/20 02:41:06;;;;;;;19.77;10.85;;;;;;;;;;5064310;28;20107;-67
2023/01/20 02:43:34;;;;;;;20.75;10.70;;;;;;;;;;5053428;28;20053;-67
2023/01/20 02:46:19;;;;;;;17.88;10.95;;;;;;;;;;5060495;28;20390;-67
2023/01/20 02:48:55;;;;;;;34.13;10.93;;;;;;;;;;5059061;28;20036;-67
2023/01/20 02:51:37;;;;;;;17.00;10.60;;;;;;;;;;5070439;28;20116;-67
2023/01/20 02:54:05;;;;;;;21.73;11.10;;;;;;;;;;5080636;28;20079;-67
2023/01/20 02:56:33;;;;;;;16.55;9.68;;;;;;;;;;5061407;28;20017;-67
2023/01/20 02:59:05;;;;;;;17.33;9.35;;;;;;;;;;5072435;28;20033;-67
2023/01/20 03:01:33;;;;;;;17.95;9.85;;;;;;;;;;5056001;28;20486;-67
2023/01/20 03:04:00;;;;;;;15.90;9.80;;;;;;;;;;5065694;28;20036;-67
2023/01/20 03:06:28;;;;;;;15.10;8.75;;;;;;;;;;5062984;28;20440;-67
2023/01/20 03:08:55;;;;;;;16.05;8.82;;;;;;;;;;5066772;28;20032;-67
2023/01/20 03:11:21;;;;;;;22.88;9.88;;;;;;;;;;5055484;28;20406;-67
2023/01/20 03:13:50;;;;;;;18.08;9.52;;;;;;;;;;5077796;28;20513;-67
2023/01/20 03:16:21;;;;;;;22.63;9.57;;;;;;;;;;5063189;28;20025;-67
2023/01/20 03:18:47;;;;;;;14.85;9.07;;;;;;;;;;5065586;28;20033;-67
2023/01/20 03:21:14;;;;;;;18.65;9.50;;;;;;;;;;5055892;28;20025;-67
2023/01/20 03:23:42;;;;;;;20.73;9.40;;;;;;;;;;5058938;28;20505;-67
2023/01/20 03:26:10;;;;;;;17.42;8.60;;;;;;;;;;5066625;28;20517;-67
2023/01/20 03:28:37;;;;;;;12.57;7.55;;;;;;;;;;5069170;28;20107;-67
2023/01/20 03:31:11;;;;;;;17.63;8.32;;;;;;;;;;5076561;28;20367;-67
2023/01/20 03:33:37;;;;;;;16.83;9.07;;;;;;;;;;5055467;28;20032;-67
2023/01/20 03:36:03;;;;;;;15.55;8.90;;;;;;;;;;5065027;28;20084;-67
2023/01/20 03:38:30;;;;;;;19.13;8.70;;;;;;;;;;5061974;28;20024;-67
2023/01/20 03:41:01;;;;;;;16.40;8.45;;;;;;;;;;5058147;28;20435;-67
2023/01/20 03:43:43;;;;;;;17.75;9.38;;;;;;;;;;5045987;28;20486;-67
2023/01/20 03:46:18;;;;;;;13.80;8.50;;;;;;;;;;5056082;28;20123;-67
2023/01/20 03:48:50;;;;;;;13.90;7.43;;;;;;;;;;5052085;28;20415;-67
2023/01/20 03:51:39;;;;;;;18.70;8.32;;;;;;;;;;5052211;28;20057;-67
2023/01/20 03:54:09;;;;;;;16.60;7.95;;;;;;;;;;5033093;28;20564;-67
2023/01/20 03:57:05;;;;;;;15.25;7.97;;;;;;;;;;5039585;28;20057;-67
2023/01/20 03:59:35;;;;;;;13.73;8.05;;;;;;;;;;5034501;28;20437;-67
2023/01/20 04:02:02;;;;;;;16.50;7.70;;;;;;;;;;5036229;28;20127;-67
2023/01/20 04:04:28;;;;;;;14.07;6.80;;;;;;;;;;5049442;28;20021;-67
2023/01/20 04:06:55;;;;;;;19.90;7.32;;;;;;;;;;5035409;28;20026;-67
2023/01/20 04:09:24;;;;;;;20.20;7.88;;;;;;;;;;5049131;28;20043;-67
2023/01/20 04:11:50;;;;;;;14.23;7.30;;;;;;;;;;5033707;28;20029;-67
2023/01/20 04:14:16;;;;;;;19.67;8.60;;;;;;;;;;5041770;28;20497;-67
2023/01/20 04:16:48;;;;;;;15.43;7.45;;;;;;;;;;5044312;28;20116;-67
2023/01/20 04:19:14;;;;;;;12.25;7.10;;;;;;;;;;5033876;28;20039;-68
2023/01/20 04:21:44;;;;;;;18.48;8.05;;;;;;;;;;5063839;28;20049;-67
2023/01/20 04:24:16;;;;;;;15.98;7.55;;;;;;;;;;5064378;28;20028;-67
2023/01/20 04:26:42;;;;;;;13.93;7.13;;;;;;;;;;5079650;28;20605;-67
2023/01/20 04:29:08;;;;;;;13.63;7.50;;;;;;;;;;5067638;28;20443;-67
2023/01/20 04:31:34;;;;;;;14.88;6.85;;;;;;;;;;5054594;28;20104;-67
2023/01/20 04:34:01;;;;;;;13.32;7.07;;;;;;;;;;5066331;28;20041;-67
2023/01/20 04:36:27;;;;;;;14.60;7.22;;;;;;;;;;5059511;28;20041;-67
2023/01/20 04:38:53;;;;;;;12.98;7.47;;;;;;;;;;5059150;28;20059;-67
2023/01/20 04:41:19;;;;;;;14.82;6.90;;;;;;;;;;5073480;28;20021;-67
2023/01/20 04:43:46;;;;;;;17.30;7.13;;;;;;;;;;5068715;28;20031;-67
2023/01/20 04:46:12;;;;;;;13.77;7.40;;;;;;;;;;5071767;28;20113;-67
2023/01/20 04:48:38;;;;;;;11.77;6.60;;;;;;;;;;5064292;28;20031;-67
2023/01/20 04:51:05;;;;;;;8.82;6.70;;;;;;;;;;5073469;28;20028;-67
2023/01/20 04:53:31;;;;;;;16.58;7.30;;;;;;;;;;5057583;28;20078;-67
2023/01/20 04:55:57;;;;;;;14.35;7.50;;;;;;;;;;5056100;28;20052;-67
2023/01/20 04:58:23;;;;;;;14.35;7.20;;;;;;;;;;5070907;28;20033;-67
2023/01/20 05:00:49;;;;;;;10.82;6.28;;;;;;;;;;5071146;28;20020;-67
2023/01/20 05:03:16;;;;;;;10.80;6.28;;;;;;;;;;5070676;28;20028;-67
2023/01/20 05:05:42;;;;;;;13.13;6.65;;;;;;;;;;5069516;28;20071;-67
2023/01/20 05:08:08;;;;;;;11.43;7.22;;;;;;;;;;5056319;28;20024;-67
2023/01/20 05:10:34;;;;;;;13.07;7.05;;;;;;;;;;5081567;28;20028;-67
2023/01/20 05:13:01;;;;;;;14.55;6.57;;;;;;;;;;5071354;28;20052;-67
2023/01/20 05:15:27;;;;;;;9.15;5.72;;;;;;;;;;5076699;28;20666;-67
2023/01/20 05:17:53;;;;;;;13.55;6.60;;;;;;;;;;5083657;28;20055;-67
2023/01/20 05:20:19;;;;;;;11.23;6.75;;;;;;;;;;5083484;28;20481;-67
2023/01/20 05:22:46;;;;;;;12.18;7.20;;;;;;;;;;5079839;28;20486;-67
2023/01/20 05:25:12;;;;;;;12.52;7.40;;;;;;;;;;5083534;28;20016;-67
2023/01/20 05:27:38;;;;;;;15.32;6.75;;;;;;;;;;5081603;28;20377;-67
2023/01/20 05:30:05;;;;;;;16.98;6.93;;;;;;;;;;5081721;28;20503;-68
2023/01/20 05:32:32;;;;;;;9.60;6.65;;;;;;;;;;5081148;28;20017;-68
2023/01/20 05:34:58;;;;;;;14.95;7.28;;;;;;;;;;5083112;28;20075;-67
2023/01/20 05:37:24;;;;;;;10.43;7.60;;;;;;;;;;5082361;28;20119;-67
2023/01/20 05:39:50;;;;;;;11.30;6.57;;;;;;;;;;5081331;28;20043;-67
2023/01/20 05:42:16;;;;;;;11.57;5.45;;;;;;;;;;5081916;28;20024;-67
2023/01/20 05:44:42;;;;;;;14.95;6.70;;;;;;;;;;5082537;28;20044;-67
2023/01/20 05:47:08;;;;;;;14.68;6.10;;;;;;;;;;5083900;28;20016;-67
2023/01/20 05:49:35;;;;;;;12.27;7.00;;;;;;;;;;5083457;28;20079;-67
2023/01/20 05:52:01;;;;;;;13.23;6.18;;;;;;;;;;5076468;28;20023;-67
2023/01/20 05:54:27;;;;;;;10.55;6.60;;;;;;;;;;5079290;28;20024;-68
2023/01/20 05:56:53;;;;;;;12.63;6.80;;;;;;;;;;5078682;28;20021;-68
2023/01/20 05:59:19;;;;;;;10.85;6.80;;;;;;;;;;5079045;28;20079;-68
2023/01/20 06:01:45;;;;;;;13.82;7.43;;;;;;;;;;5079119;28;20048;-68
2023/01/20 06:04:11;;;;;;;9.90;6.15;;;;;;;;;;5081508;28;20032;-67
2023/01/20 06:06:37;;;;;;;16.02;7.20;;;;;;;;;;5078664;28;20017;-67
2023/01/20 06:09:05;;;;;;;9.52;6.53;;;;;;;;;;5081539;28;20063;-67
2023/01/20 06:11:31;;;;;;;11.10;6.60;;;;;;;;;;5074950;28;20027;-67
2023/01/20 06:13:57;;;;;;;17.48;7.47;;;;;;;;;;5075219;28;20056;-67
2023/01/20 06:16:23;;;;;;;13.13;6.90;;;;;;;;;;5084129;28;20009;-67
2023/01/20 06:18:49;;;;;;;9.98;6.22;;;;;;;;;;5083315;28;20025;-67
2023/01/20 06:21:15;;;;;;;16.33;6.85;;;;;;;;;;5079065;28;20048;-67
2023/01/20 06:23:42;;;;;;;12.75;6.68;;;;;;;;;;5077777;28;20059;-67
2023/01/20 06:26:10;;;;;;;13.00;5.95;;;;;;;;;;5074617;28;20024;-67
2023/01/20 06:28:36;;;;;;;13.35;6.53;;;;;;;;;;5079983;28;20116;-67
2023/01/20 06:31:03;;;;;;;12.90;6.60;;;;;;;;;;5069480;28;20040;-68
2023/01/20 06:33:30;;;;;;;11.93;7.13;;;;;;;;;;5070478;28;20398;-68
2023/01/20 06:35:56;;;;;;;22.45;11.60;;;;;;;;;;5077358;28;20119;-68
2023/01/20 06:38:23;;;;;;;16.63;8.73;;;;;;;;;;5072004;28;20386;-68
2023/01/20 06:40:49;;;;;;;23.02;10.95;;;;;;;;;;5071120;28;20035;-68
2023/01/20 06:43:15;;;;;;;16.45;9.75;;;;;;;;;;5070123;28;20551;-68
2023/01/20 06:45:41;;;;;;;17.70;10.30;;;;;;;;;;5072757;28;20024;-68
2023/01/20 06:48:08;;;;;;;17.65;9.73;;;;;;;;;;5069322;28;20039;-68
2023/01/20 06:50:34;;;;;;;19.45;11.80;;;;;;;;;;5072316;28;20081;-68
2023/01/20 06:53:00;;;;;;;24.75;10.00;;;;;;;;;;5067545;28;20036;-68
2023/01/20 06:55:26;;;;;;;21.25;10.93;;;;;;;;;;5062586;28;20040;-68
2023/01/20 06:57:53;;;;;;;17.08;9.77;;;;;;;;;;5074999;28;20085;-68
2023/01/20 07:00:20;;;;;;;16.45;10.10;;;;;;;;;;5084463;28;20421;-68
2023/01/20 07:02:48;;;;;;;20.70;10.10;;;;;;;;;;5072180;28;20065;-68
2023/01/20 07:05:14;;;;;;;16.52;9.90;;;;;;;;;;5071346;28;20021;-68
2023/01/20 07:07:43;;;;;;;16.10;8.30;;;;;;;;;;5070390;28;20031;-68
2023/01/20 07:10:10;;;;;;;19.55;8.43;;;;;;;;;;5071596;28;20032;-68
2023/01/20 07:12:36;;;;;;;11.98;7.80;;;;;;;;;;5071684;28;20024;-68
2023/01/20 07:15:02;;;;;;;11.52;7.68;;;;;;;;;;5078755;28;20022;-68
2023/01/20 07:17:28;;;;;;;13.43;7.57;;;;;;;;;;5065739;28;20020;-68
2023/01/20 07:19:54;;;;;;;14.32;7.00;;;;;;;;;;5069726;28;20537;-68
2023/01/20 07:22:21;;;;;;;15.27;7.90;;;;;;;;;;5059243;28;20107;-68
2023/01/20 07:24:47;;;;;;;14.02;7.22;;;;;;;;;;5070504;28;20086;-68
2023/01/20 07:27:13;;;;;;;16.58;7.68;;;;;;;;;;5071342;28;20180;-68
2023/01/20 07:29:40;;;;;;;13.77;7.80;;;;;;;;;;5071293;28;20397;-68
2023/01/20 07:32:06;;;;;;;14.30;7.50;;;;;;;;;;5071090;28;20052;-69
2023/01/20 07:34:33;;;;;;;14.13;7.88;;;;;;;;;;5062077;28;20131;-68
2023/01/20 07:37:01;;;;;;;14.27;7.85;;;;;;;;;;5054719;28;20029;-69
2023/01/20 07:39:27;;;;;;;17.08;7.85;;;;;;;;;;5056009;28;20029;-68
2023/01/20 07:41:53;;;;;;;15.05;6.95;;;;;;;;;;5056880;28;20028;-68
2023/01/20 07:44:20;;;;;;;22.15;8.98;;;;;;;;;;5055888;28;20035;-70
2023/01/20 07:46:46;;;;;;;13.70;8.25;;;;;;;;;;5056912;28;20067;-69
2023/01/20 07:49:12;;;;;;;16.75;8.95;;;;;;;;;;5064831;28;20028;-69
2023/01/20 07:51:38;;;;;;;18.63;8.80;;;;;;;;;;5067327;28;20518;-69
2023/01/20 07:54:05;;;;;;;19.23;9.45;;;;;;;;;;5069842;28;20021;-69
2023/01/20 07:56:31;;;;;;;18.70;9.63;;;;;;;;;;5072863;28;20021;-69
2023/01/20 07:58:57;;;;;;;31.27;11.48;;;;;;;;;;5069865;28;20481;-69
2023/01/20 08:01:25;;;;;;;20.08;11.38;;;;;;;;;;5062761;28;20536;-69
2023/01/20 08:03:51;;;;;;;21.35;11.27;;;;;;;;;;5066909;28;20032;-69
2023/01/20 08:06:19;;;;;;;19.60;11.50;;;;;;;;;;5070574;28;20024;-69
2023/01/20 08:08:45;;;;;;;19.55;10.88;;;;;;;;;;5074560;28;20040;-69
2023/01/20 08:11:12;;;;;;;21.77;10.45;;;;;;;;;;5074895;28;20059;-69
2023/01/20 08:13:39;;;;;;;17.45;10.95;;;;;;;;;;5074338;28;20482;-69
2023/01/20 08:16:06;;;;;;;20.10;10.05;;;;;;;;;;5072154;28;20044;-69
2023/01/20 08:18:34;;;;;;;23.42;10.55;;;;;;;;;;5066386;28;20089;-69
2023/01/20 08:21:00;;;;;;;22.98;11.15;;;;;;;;;;5072846;28;20028;-69
2023/01/20 08:23:27;;;;;;;22.27;9.75;;;;;;;;;;5068353;28;20090;-69
2023/01/20 08:25:58;;;;;;;16.88;8.85;;;;;;;;;;5069264;28;20069;-68
2023/01/20 08:28:25;;;;;;;20.27;11.02;;;;;;;;;;5069109;28;20174;-69
2023/01/20 08:30:51;;;;;;;19.00;10.85;;;;;;;;;;5069220;28;20095;-69
2023/01/20 08:33:17;;;;;;;13.18;9.15;;;;;;;;;;5068463;28;20040;-69
2023/01/20 08:35:43;;;;;;;16.05;9.60;;;;;;;;;;5067470;28;20171;-69
2023/01/20 08:38:09;;;;;;;17.33;9.57;;;;;;;;;;5068639;28;20033;-69
2023/01/20 08:40:35;;;;;;;14.30;8.38;;;;;;;;;;5067536;28;20036;-69
2023/01/20 08:43:01;;;;;;;17.55;9.13;;;;;;;;;;5067986;28;20028;-69
2023/01/20 08:45:27;;;;;;;26.20;9.50;;;;;;;;;;5068898;28;20099;-69
2023/01/20 08:47:54;;;;;;;16.27;8.77;;;;;;;;;;5068119;28;20134;-69
2023/01/20 08:50:22;;;;;;;17.55;8.18;;;;;;;;;;5072268;28;20051;-69
2023/01/20 08:52:48;;;;;;;19.73;9.10;;;;;;;;;;5072772;28;20119;-69
2023/01/20 08:55:14;;;;;;;18.08;7.82;;;;;;;;;;5073987;28;20396;-69
2023/01/20 08:57:40;;;;;;;15.50;8.65;;;;;;;;;;5071790;28;20493;-69
2023/01/20 09:00:08;;;;;;;25.00;9.35;;;;;;;;;;5072987;28;20029;-69
2023/01/20 09:02:34;;;;;;;17.80;9.35;;;;;;;;;;5071975;28;20016;-69
2023/01/20 09:05:00;;;;;;;17.05;8.20;;;;;;;;;;5073236;28;20020;-69
2023/01/20 09:07:26;;;;;;;20.67;9.43;;;;;;;;;;5072357;28;20074;-69
2023/01/20 09:09:53;;;;;;;20.73;9.07;;;;;;;;;;5073157;28;20021;-69
2023/01/20 09:12:19;;;;;;;18.98;8.18;;;;;;;;;;5070187;28;20025;-69
2023/01/20 09:14:45;;;;;;;19.52;8.65;;;;;;;;;;5068786;28;20028;-69
2023/01/20 09:17:13;;;;;;;20.98;8.35;;;;;;;;;;5076705;28;20016;-68
2023/01/20 09:19:39;;;;;;;14.93;7.75;;;;;;;;;;5070595;28;20024;-69
2023/01/20 09:22:06;;;;;;;16.35;8.02;;;;;;;;;;5073113;28;20074;-69
2023/01/20 09:24:32;;;;;;;14.95;8.60;;;;;;;;;;5076604;28;20031;-69
2023/01/20 09:26:58;;;;;;;13.68;7.80;;;;;;;;;;5062776;28;20025;-69
2023/01/20 09:29:24;;;;;;;21.70;9.25;;;;;;;;;;5070923;28;20415;-68
2023/01/20 09:31:51;;;;;;;34.45;13.40;;;;;;;;;;5061606;28;20040;-69
2023/01/20 09:34:22;;;;;;;25.50;12.85;;;;;;;;;;5073860;28;20494;-69
2023/01/20 09:36:50;;;;;;;28.15;13.02;;;;;;;;;;5073148;28;20037;-69
2023/01/20 09:45:08;;;;;;;85.68;34.78;;;;;;;;;;5072893;28;20489;-68
2023/01/20 09:47:41;;;;;;;36.80;14.90;;;;;;;;;;5079667;28;20082;-69
2023/01/20 09:53:15;;;;;;;17.77;8.20;;;;;;;;;;5071159;28;20055;-69
2023/01/20 09:55:44;;;;;;;19.42;7.32;;;;;;;;;;5071920;28;20028;-69
2023/01/20 09:58:10;;;;;;;19.10;7.35;;;;;;;;;;5071745;28;20370;-69
2023/01/20 10:00:38;;;;;;;18.35;7.63;;;;;;;;;;5070592;28;20040;-69
2023/01/20 10:03:13;;;;;;;17.42;7.43;;;;;;;;;;5061750;28;20036;-69
2023/01/20 10:05:40;;;;;;;36.75;14.95;;;;;;;;;;5073777;28;20035;-69
2023/01/20 10:08:06;;;;;;;22.63;8.07;;;;;;;;;;5071992;28;20032;-69
2023/01/20 10:10:37;;;;;;;14.60;7.05;;;;;;;;;;5072215;28;20035;-69
2023/01/20 10:13:07;;;;;;;15.50;7.25;;;;;;;;;;5066987;28;20024;-69
2023/01/20 10:15:35;;;;;;;17.38;7.65;;;;;;;;;;5065687;28;20603;-69
2023/01/20 10:18:01;;;;;;;16.38;7.90;;;;;;;;;;5062676;28;20056;-69
2023/01/20 10:20:46;;;;;;;13.05;6.55;;;;;;;;;;5072590;28;20063;-69
2023/01/20 10:23:28;;;;;;;16.52;6.60;;;;;;;;;;5076757;28;20031;-69
2023/01/20 10:26:13;;;;;;;14.48;7.18;;;;;;;;;;5065386;28;20474;-68
2023/01/20 10:28:55;;;;;;;29.70;14.45;;;;;;;;;;5067435;28;20032;-68
2023/01/20 10:31:21;;;;;;;;;;;;;;;;;;5065023;28;20079;-69
2023/01/20 10:33:47;;;;;;;95.53;39.95;;;;;;;;;;5071918;28;20346;-69
2023/01/20 10:36:20;;;;;;;68.25;30.13;;;;;;;;;;5065731;28;20041;-69
2023/01/20 10:38:54;;;;;;;59.13;27.42;;;;;;;;;;5071074;28;20514;-69
2023/01/20 10:41:38;;;;;;;52.15;24.00;;;;;;;;;;5072122;28;20120;-69
2023/01/20 10:44:09;;;;;;;55.13;23.90;;;;;;;;;;5066017;28;20041;-69
2023/01/20 10:46:39;;;;;;;46.30;20.63;;;;;;;;;;5062150;28;20116;-69
2023/01/20 10:49:24;;;;;;;38.15;19.25;;;;;;;;;;5067748;28;20045;-69
2023/01/20 10:52:05;;;;;;;36.20;19.35;;;;;;;;;;5063009;28;20047;-69
2023/01/20 10:54:38;;;;;;;26.65;14.77;;;;;;;;;;5072208;28;20021;-69
2023/01/20 10:57:05;;;;;;;30.52;11.93;;;;;;;;;;5066934;28;20060;-69
2023/01/20 10:59:41;;;;;;;35.55;16.67;;;;;;;;;;5067020;28;20059;-69
2023/01/20 11:02:15;;;;;;;24.90;12.63;;;;;;;;;;5057698;28;20032;-69
2023/01/20 11:04:41;;;;;;;26.02;11.85;;;;;;;;;;5071547;28;20109;-69
2023/01/20 11:07:15;;;;;;;23.02;11.18;;;;;;;;;;5067319;28;20444;-69
2023/01/20 11:09:42;;;;;;;15.80;9.30;;;;;;;;;;5071072;28;20032;-69
2023/01/20 11:12:37;;;;;;;24.98;9.10;;;;;;;;;;5062789;28;20020;-68
2023/01/20 11:15:15;;;;;;;21.58;9.95;;;;;;;;;;5068342;28;20056;-68
2023/01/20 11:17:42;;;;;;;18.23;8.45;;;;;;;;;;5069930;28;20103;-68
2023/01/20 11:20:14;;;;;;;16.00;9.68;;;;;;;;;;5073669;28;20020;-68
2023/01/20 11:22:44;;;;;;;23.88;11.55;;;;;;;;;;5063151;28;20874;-68
2023/01/20 11:25:22;;;;;;;22.48;10.40;;;;;;;;;;5067552;28;20450;-68
2023/01/20 11:27:48;;;;;;;15.48;8.60;;;;;;;;;;5066955;28;20103;-68
2023/01/20 11:30:32;;;;;;;18.77;8.27;;;;;;;;;;5071224;28;20052;-68
2023/01/20 11:33:08;;;;;;;19.05;8.90;;;;;;;;;;5068151;28;20016;-68
2023/01/20 11:35:35;;;;;;;15.80;8.60;;;;;;;;;;5067782;28;20102;-68
2023/01/20 11:38:20;;;;;;;31.00;9.82;;;;;;;;;;5069428;28;20079;-68
2023/01/20 11:40:52;;;;;;;16.17;7.85;;;;;;;;;;5066315;28;20025;-68
2023/01/20 11:43:28;;;;;;;15.05;5.68;;;;;;;;;;5067901;28;20478;-68
2023/01/20 11:46:09;;;;;;;12.35;6.50;;;;;;;;;;5068543;28;20029;-68
2023/01/20 11:48:35;;;;;;;14.07;5.60;;;;;;;;;;5068364;28;20079;-68
2023/01/20 11:51:02;;;;;;;11.02;6.90;;;;;;;;;;5065187;28;20017;-68
2023/01/20 11:53:30;;;;;;;15.20;7.47;;;;;;;;;;5068504;28;20016;-68
2023/01/20 11:56:01;;;;;;;12.10;7.25;;;;;;;;;;5069313;28;20481;-69
2023/01/20 11:58:31;;;;;;;16.50;7.63;;;;;;;;;;5067877;28;20025;-69
2023/01/20 12:01:00;;;;;;;11.75;6.38;;;;;;;;;;5064225;28;20036;-68
2023/01/20 12:03:26;;;;;;;17.33;7.85;;;;;;;;;;5054475;28;20021;-68
2023/01/20 12:05:58;;;;;;;17.67;8.48;;;;;;;;;;5065882;28;20442;-68
2023/01/20 12:08:30;;;;;;;13.65;7.78;;;;;;;;;;5066818;28;20129;-68
2023/01/20 12:10:59;;;;;;;9.10;5.03;;;;;;;;;;5078760;28;20025;-68
2023/01/20 12:13:29;;;;;;;9.63;5.75;;;;;;;;;;5069651;28;20460;-68
2023/01/20 12:16:00;;;;;;;15.77;6.00;;;;;;;;;;5070589;28;20032;-68
2023/01/20 12:18:38;;;;;;;16.33;6.93;;;;;;;;;;5064614;28;20035;-68
2023/01/20 12:21:08;;;;;;;18.85;6.45;;;;;;;;;;5070279;28;20189;-68
2023/01/20 12:23:44;;;;;;;15.52;6.50;;;;;;;;;;5078574;28;20036;-68
2023/01/20 12:26:12;;;;;;;15.02;6.90;;;;;;;;;;5074994;28;20037;-68
2023/01/20 12:28:41;;;;;;;13.00;6.45;;;;;;;;;;5081058;28;20016;-68
2023/01/20 12:31:11;;;;;;;7.80;5.68;;;;;;;;;;5084712;28;20059;-68
2023/01/20 12:33:44;;;;;;;12.95;5.53;;;;;;;;;;5060990;28;20025;-68
2023/01/20 12:36:19;;;;;;;11.65;4.80;;;;;;;;;;5080199;28;20048;-68
2023/01/20 12:39:04;;;;;;;7.85;4.15;;;;;;;;;;5066485;28;20455;-68
2023/01/20 12:41:33;;;;;;;11.65;4.32;;;;;;;;;;5069457;28;20032;-68
2023/01/20 12:43:59;;;;;;;11.63;4.38;;;;;;;;;;5069088;28;20028;-69
2023/01/20 12:46:28;;;;;;;8.40;3.22;;;;;;;;;;5078444;28;20484;-70
2023/01/20 12:49:27;;;;;;;9.00;3.83;;;;;;;;;;5078839;28;20033;-69
2023/01/20 12:51:53;;;;;;;9.40;4.57;;;;;;;;;;5018071;28;20033;-69
2023/01/20 12:54:28;;;;;;;8.07;4.63;;;;;;;;;;5020821;28;20026;-69
2023/01/20 12:56:54;;;;;;;13.02;5.00;;;;;;;;;;5020605;28;20037;-69
2023/01/20 12:59:38;;;;;;;17.27;5.28;;;;;;;;;;5010909;28;20032;-69
2023/01/20 13:02:04;;;;;;;12.50;4.85;;;;;;;;;;5013197;28;20046;-69
2023/01/20 13:04:43;;;;;;;12.55;5.13;;;;;;;;;;5011559;28;20511;-69
2023/01/20 13:07:09;;;;;;;13.25;4.05;;;;;;;;;;5015960;28;20416;-70
2023/01/20 13:09:38;;;;;;;11.65;5.10;;;;;;;;;;5016047;28;20092;-70
2023/01/20 13:12:23;;;;;;;15.23;4.03;;;;;;;;;;5015491;28;20143;-69
2023/01/20 13:14:57;;;;;;;13.73;4.60;;;;;;;;;;5015959;28;20037;-69
2023/01/20 13:17:29;;;;;;;12.13;4.40;;;;;;;;;;5012991;28;20056;-69
2023/01/20 13:20:00;;;;;;;6.55;3.65;;;;;;;;;;5010548;28;20042;-70
2023/01/20 13:22:26;;;;;;;25.58;10.18;;;;;;;;;;5011372;28;20040;-69
2023/01/20 13:24:54;;;;;;;15.07;6.30;;;;;;;;;;5013004;28;20032;-69
2023/01/20 13:27:24;;;;;;;35.83;15.70;;;;;;;;;;5040029;28;20182;-69
2023/01/20 13:29:50;;;;;;;23.13;8.88;;;;;;;;;;5068959;28;20021;-70
2023/01/20 13:32:26;;;;;;;19.80;8.13;;;;;;;;;;5069828;28;20024;-69
2023/01/20 13:34:52;;;;;;;8.80;4.25;;;;;;;;;;5070044;28;20117;-69
2023/01/20 13:37:18;;;;;;;11.85;5.82;;;;;;;;;;5071952;28;20031;-70
2023/01/20 13:39:45;;;;;;;8.18;3.50;;;;;;;;;;5069463;28;20482;-70
2023/01/20 13:42:26;;;;;;;8.77;4.18;;;;;;;;;;5069918;28;20020;-69
2023/01/20 13:45:08;;;;;;;8.45;3.35;;;;;;;;;;5072481;28;20058;-70
2023/01/20 13:47:52;;;;;;;9.38;3.58;;;;;;;;;;5071269;28;20020;-69
2023/01/20 13:50:29;;;;;;;7.72;3.60;;;;;;;;;;5072241;28;20068;-70
2023/01/20 13:53:01;;;;;;;11.07;3.65;;;;;;;;;;5071645;28;20048;-69
2023/01/20 13:55:28;;;;;;;6.20;2.70;;;;;;;;;;5071576;28;20033;-69
2023/01/20 13:57:55;;;;;;;9.38;2.67;;;;;;;;;;5076471;28;20271;-70
2023/01/20 14:00:21;;;;;;;9.68;2.75;;;;;;;;;;5072163;28;20421;-70
2023/01/20 14:02:48;;;;;;;5.47;2.10;;;;;;;;;;5068727;28;20083;-70
2023/01/20 14:05:29;;;;;;;11.35;1.85;;;;;;;;;;5060006;28;20508;-70
2023/01/20 14:07:55;;;;;;;4.88;1.80;;;;;;;;;;5060236;28;20036;-70
2023/01/20 14:10:22;;;;;;;6.68;2.17;;;;;;;;;;5070338;28;20043;-70
2023/01/20 14:12:48;;;;;;;8.65;2.05;;;;;;;;;;5062220;28;20075;-70
2023/01/20 14:15:44;;;;;;;9.52;2.60;;;;;;;;;;5067457;28;20072;-70
2023/01/20 14:18:14;;;;;;;7.72;2.22;;;;;;;;;;5058866;28;20127;-69
2023/01/20 14:20:40;;;;;;;5.53;3.10;;;;;;;;;;5069909;28;20028;-69
2023/01/20 14:23:42;;;;;;;4.68;2.13;;;;;;;;;;5071294;28;20028;-69
2023/01/20 14:26:09;;;;;;;4.15;2.20;;;;;;;;;;4987324;28;20117;-70
2023/01/20 14:28:40;;;;;;;10.80;2.83;;;;;;;;;;4985241;28;20500;-70
2023/01/20 14:31:06;;;;;;;10.40;2.17;;;;;;;;;;4989049;28;20467;-69
2023/01/20 14:33:32;;;;;;;7.25;3.80;;;;;;;;;;4986146;28;20117;-70
2023/01/20 14:35:59;;;;;;;7.57;2.47;;;;;;;;;;4983330;28;20209;-70
2023/01/20 14:38:25;;;;;;;6.22;2.72;;;;;;;;;;4989414;28;20031;-70
2023/01/20 14:40:51;;;;;;;6.85;2.25;;;;;;;;;;4982131;28;20428;-70
2023/01/20 14:43:19;;;;;;;9.27;1.50;;;;;;;;;;4986735;28;20045;-70
2023/01/20 14:45:46;;;;;;;8.10;1.75;;;;;;;;;;4984311;28;20041;-69
2023/01/20 14:48:13;;;;;;;3.90;1.35;;;;;;;;;;4985379;28;20050;-70